Resolute, Nunavut

3:38 AM CDT on August 21, 2017 (GMT -0500)
Resolute | | Change Station

Elev 220 ft 74.72 °N, 94.98 °W | Updated 38 minutes ago

Overcast
Overcast
39 °F
Feels Like 34 °F
N
7
Wind Variable Wind from NW

Today
High -- | Low -- °F
--% Chance of Precip.
Yesterday
High -- | Low -- °F
Precip. -- in
Pressure 30.04 in
Visibility 15.0 miles
Clouds Overcast 25000 ft
Windchill 34 °F
Dew Point 34 °F
Humidity 81%
Rainfall 0.00 in
Snow Depth Not available.
3:36 AM 11:01 PM
Waning Crescent, 0% visible
METAR CYRB 210800Z 32006KT 15SM OVC250 04/01 A3001 RMK CS8 SLP170
Pressure 30.04 in
Visibility 15.0 miles
Clouds Overcast 25000 ft
Windchill 34 °F
Dew Point 34 °F
Humidity 81%
Rainfall 0.00 in
Snow Depth Not available.
3:36 AM 11:01 PM
Waning Crescent, 0% visible
METAR CYRB 210800Z 32006KT 15SM OVC250 04/01 A3001 RMK CS8 SLP170

Get Severe Weather Alerts

Thanks for signing up!

Be on the lookout for a verification email in your inbox.

You'll start receiving the daily forecast at 6 AM.

×

10-Day Weather Forecast

No radar image for this location.
×

Almanac

Astronomy

Aug. 21, 2017 Rise Set
Actual Time
Civil Twilight
Nautical Twilight
Astronomical Twilight
Moon
Length of Visible Light
Length of Day
Tomorrow will be .
, % of the Moon is Illuminated

Today's Extremes

Country Highs Country Lows

Community

WunderPhotos

Category 6

Welcome to Category 6. This is the collective home for Weather Underground's featured writeups by Dr. Jeff Masters (right), Bob Henson (left), Chris Burt, and other regular contributors.

Nearby

Air Quality

  Air Quality AQ Index Pollutant
Not available.

Snow Depth

Station Depth Elevation

Earthquake Activity

City Distance Mag. Time & Date
Minimum magnitude displayed is 2.5.

Coastal Water Temperatures

Place Temperature

Stations

Nearby Weather Stations

Station Location Temp. Windchill Dew Point Humidity Wind Precip. Elev Updated Type
                   

Watches & Warnings

There are currently no watches in effect.